Time;durP1;ratioP1;P1;durP2;ratioP2;P2;SDS_P1;SDS_P2;PMS_P1;PMS_P2;Temp;Humidity;BMP_temperature;BMP_pressure;BME280_temperature;BME280_humidity;BME280_pressure;Samples;Min_cycle;Max_cycle;Signal;HPM_P1;HPM_P2
2024/01/06 00:00:50;;;;;;;3.20;1.98;;;;;;;8.88;68.81;92841.69;5058783;28;20048;-72
2024/01/06 00:03:17;;;;;;;3.25;2.03;;;;;;;8.86;67.99;92843.69;5066581;28;20410;-72
2024/01/06 00:05:44;;;;;;;3.72;2.10;;;;;;;8.77;68.68;92844.94;5062455;28;20045;-73
2024/01/06 00:08:11;;;;;;;3.20;1.77;;;;;;;8.80;66.98;92863.22;5066072;28;20066;-72
2024/01/06 00:10:39;;;;;;;4.68;2.08;;;;;;;8.85;68.18;92865.19;5062985;28;20148;-72
2024/01/06 00:13:06;;;;;;;12.10;6.55;;;;;;;8.75;67.05;92842.56;5059691;28;20497;-73
2024/01/06 00:15:33;;;;;;;9.35;4.57;;;;;;;8.84;68.47;92848.22;5065128;28;20435;-73
2024/01/06 00:18:00;;;;;;;5.07;2.75;;;;;;;8.81;69.05;92866.59;5066326;28;20044;-73
2024/01/06 00:20:27;;;;;;;4.30;2.08;;;;;;;8.76;68.56;92856.97;5063120;28;20449;-73
2024/01/06 00:22:53;;;;;;;5.78;2.13;;;;;;;8.82;68.55;92860.47;5066034;28;20532;-72
2024/01/06 00:25:20;;;;;;;3.42;1.95;;;;;;;8.85;68.73;92862.63;5060073;28;20082;-72
2024/01/06 00:27:50;;;;;;;3.30;2.13;;;;;;;8.85;66.85;92854.13;5065726;28;20040;-72
2024/01/06 00:30:17;;;;;;;3.55;1.80;;;;;;;8.77;67.13;92850.84;5066113;28;20504;-72
2024/01/06 00:32:44;;;;;;;4.32;1.85;;;;;;;8.80;67.28;92859.91;5061906;28;20045;-72
2024/01/06 00:35:10;;;;;;;4.38;1.92;;;;;;;8.74;67.95;92858.94;5065872;28;20040;-72
2024/01/06 00:37:37;;;;;;;3.45;2.03;;;;;;;8.68;69.76;92855.44;5061703;28;20045;-74
2024/01/06 00:40:05;;;;;;;5.55;2.50;;;;;;;8.76;69.83;92866.41;5065639;28;20048;-73
2024/01/06 00:42:32;;;;;;;3.58;1.63;;;;;;;8.65;70.94;92858.41;5061989;28;20058;-73
2024/01/06 00:45:01;;;;;;;2.97;1.67;;;;;;;8.68;71.09;92852.06;5064945;28;20059;-73
2024/01/06 00:47:27;;;;;;;5.78;2.00;;;;;;;8.67;71.08;92853.06;5061788;28;20079;-74
2024/01/06 00:49:54;;;;;;;6.45;2.00;;;;;;;8.70;70.67;92860.31;5065563;28;20045;-73
2024/01/06 00:52:21;;;;;;;3.00;1.92;;;;;;;8.64;69.54;92867.06;5062403;28;20056;-73
2024/01/06 00:54:48;;;;;;;3.70;2.40;;;;;;;8.69;69.63;92863.88;5059749;28;20041;-73
2024/01/06 00:57:15;;;;;;;4.32;2.20;;;;;;;8.71;69.68;92864.47;5060967;28;20427;-73
2024/01/06 00:59:42;;;;;;;2.80;1.48;;;;;;;8.70;69.42;92860.31;5065835;28;20051;-73
2024/01/06 01:02:11;;;;;;;3.40;1.55;;;;;;;8.74;69.23;92866.63;5065340;28;20051;-73
2024/01/06 01:04:37;;;;;;;4.05;1.98;;;;;;;8.70;68.88;92865.44;5068934;28;20045;-72
2024/01/06 01:07:05;;;;;;;4.68;1.90;;;;;;;8.66;68.83;92859.97;5069453;28;20049;-72
2024/01/06 01:09:32;;;;;;;3.55;1.85;;;;;;;8.63;69.44;92860.38;5065043;28;20139;-72
2024/01/06 01:11:58;;;;;;;3.75;1.88;;;;;;;8.72;69.28;92858.38;5067430;28;20076;-72
2024/01/06 01:14:25;;;;;;;3.60;1.80;;;;;;;8.77;69.09;92853.41;5068315;28;20524;-72
2024/01/06 01:16:52;;;;;;;2.67;1.50;;;;;;;8.80;69.28;92849.66;5069311;28;20055;-72
2024/01/06 01:19:21;;;;;;;3.22;1.70;;;;;;;8.83;69.18;92838.97;5065545;28;20106;-72
2024/01/06 01:21:48;;;;;;;3.33;1.70;;;;;;;8.76;69.34;92841.59;5069161;28;20055;-73
2024/01/06 01:24:15;;;;;;;3.80;1.88;;;;;;;8.75;70.02;92842.56;5068733;28;20169;-72
2024/01/06 01:26:41;;;;;;;2.97;1.60;;;;;;;8.66;70.06;92841.28;5067249;28;20041;-73
2024/01/06 01:29:08;;;;;;;4.82;1.70;;;;;;;8.65;69.74;92837.91;5065810;28;20071;-72
2024/01/06 01:31:35;;;;;;;3.28;1.88;;;;;;;8.64;70.51;92840.66;5065247;28;20513;-72
2024/01/06 01:34:02;;;;;;;2.30;1.48;;;;;;;8.68;69.55;92823.91;5068381;28;20053;-72
2024/01/06 01:36:30;;;;;;;3.28;1.45;;;;;;;8.73;69.79;92828.41;5063838;28;20818;-72
2024/01/06 01:38:57;;;;;;;4.57;1.67;;;;;;;8.75;68.87;92826.44;5068499;28;20049;-73
2024/01/06 01:41:25;;;;;;;4.60;1.63;;;;;;;8.78;69.01;92823.44;5069420;28;20052;-72
2024/01/06 01:43:57;;;;;;;3.30;1.75;;;;;;;8.84;68.03;92825.16;5062964;28;20417;-72
2024/01/06 01:46:26;;;;;;;3.15;1.55;;;;;;;8.88;67.84;92821.22;5067543;28;20055;-72
2024/01/06 01:48:54;;;;;;;2.63;1.63;;;;;;;8.93;68.40;92818.81;5066707;28;20412;-73
2024/01/06 01:51:22;;;;;;;3.10;2.00;;;;;;;8.88;68.97;92818.66;5068727;28;20059;-73
2024/01/06 01:53:51;;;;;;;7.90;4.30;;;;;;;8.91;68.38;92825.94;5063336;28;20707;-72
2024/01/06 01:56:18;;;;;;;4.15;1.85;;;;;;;8.90;68.33;92814.13;5067850;28;20053;-72
2024/01/06 01:58:45;;;;;;;4.85;2.33;;;;;;;8.98;68.26;92814.84;5068242;28;20417;-72
2024/01/06 02:01:12;;;;;;;5.03;2.00;;;;;;;8.96;68.52;92812.47;5066298;28;20048;-72
2024/01/06 02:03:42;;;;;;;15.00;7.55;;;;;;;8.94;69.16;92814.47;5066558;28;20059;-72
2024/01/06 02:06:09;;;;;;;11.93;5.57;;;;;;;8.92;68.75;92801.88;5066303;28;20935;-72
2024/01/06 02:08:36;;;;;;;7.97;4.07;;;;;;;8.91;70.22;92815.69;5066266;28;20044;-72
2024/01/06 02:11:05;;;;;;;4.30;2.00;;;;;;;9.01;69.96;92799.84;5066940;28;20060;-72
2024/01/06 02:13:35;;;;;;;7.97;4.78;;;;;;;8.92;70.83;92790.84;5065019;28;20044;-72
2024/01/06 02:16:02;;;;;;;4.88;2.38;;;;;;;8.82;70.69;92783.63;5067396;28;20067;-72
2024/01/06 02:18:28;;;;;;;9.00;4.90;;;;;;;8.92;70.99;92778.03;5062703;28;20056;-72
2024/01/06 02:20:58;;;;;;;10.35;4.22;;;;;;;8.95;71.09;92780.94;5068500;28;20123;-72
2024/01/06 02:23:27;;;;;;;6.35;2.70;;;;;;;8.95;70.34;92768.13;5062785;28;20076;-72
2024/01/06 02:25:54;;;;;;;5.10;2.83;;;;;;;9.01;70.58;92783.66;5063209;28;20051;-72
2024/01/06 02:28:21;;;;;;;4.70;1.95;;;;;;;8.96;69.90;92771.50;5066446;28;20053;-72
2024/01/06 02:30:48;;;;;;;5.65;3.10;;;;;;;8.98;70.56;92773.84;5065433;28;21275;-72
2024/01/06 02:33:15;;;;;;;3.15;1.55;;;;;;;8.90;70.32;92762.88;5065141;28;20048;-72
2024/01/06 02:35:42;;;;;;;6.82;3.53;;;;;;;9.03;70.92;92766.31;5067990;28;20049;-72
2024/01/06 02:38:09;;;;;;;7.82;3.60;;;;;;;9.04;70.76;92755.06;5065972;28;20044;-72
2024/01/06 02:40:38;;;;;;;26.40;12.68;;;;;;;9.09;71.24;92756.00;5062239;28;20050;-72
2024/01/06 02:43:05;;;;;;;7.32;3.05;;;;;;;9.07;70.98;92750.31;5065825;28;20040;-72
2024/01/06 02:45:32;;;;;;;5.82;3.08;;;;;;;9.00;71.37;92744.47;5065997;28;20577;-72
2024/01/06 02:47:59;;;;;;;14.18;5.93;;;;;;;8.97;71.48;92737.19;5063861;28;20048;-72
2024/01/06 02:50:26;;;;;;;15.05;6.95;;;;;;;8.86;72.39;92733.56;5063607;28;20045;-72
2024/01/06 02:52:53;;;;;;;19.30;6.45;;;;;;;8.92;72.41;92739.59;5064105;28;21103;-72
2024/01/06 02:55:20;;;;;;;5.78;2.90;;;;;;;8.95;72.05;92736.63;5067112;28;20047;-72
2024/01/06 02:57:48;;;;;;;7.53;3.75;;;;;;;9.00;72.57;92739.34;5067722;28;20048;-72
2024/01/06 03:00:16;;;;;;;7.13;3.42;;;;;;;9.04;72.44;92734.59;5066810;28;20044;-72
2024/01/06 03:02:43;;;;;;;9.52;5.35;;;;;;;9.01;72.72;92733.22;5060112;28;20067;-72
2024/01/06 03:05:10;;;;;;;4.20;2.50;;;;;;;8.93;72.87;92731.72;5064629;28;20056;-73
2024/01/06 03:07:37;;;;;;;4.40;2.17;;;;;;;8.93;72.80;92733.47;5066553;28;20493;-72
2024/01/06 03:10:05;;;;;;;3.65;1.30;;;;;;;8.97;71.91;92729.50;5064924;28;20132;-72
2024/01/06 03:12:32;;;;;;;7.13;4.35;;;;;;;8.85;72.73;92721.75;5062498;28;20598;-72
2024/01/06 03:15:00;;;;;;;2.70;1.25;;;;;;;8.91;72.48;92726.03;5064853;28;20486;-72
2024/01/06 03:17:28;;;;;;;4.88;2.00;;;;;;;8.83;72.81;92723.72;5065857;28;20044;-72
2024/01/06 03:19:55;;;;;;;4.22;2.00;;;;;;;8.78;72.99;92724.38;5063349;28;20049;-72
2024/01/06 03:22:22;;;;;;;3.05;1.67;;;;;;;8.80;72.53;92730.06;5065511;28;20052;-72
2024/01/06 03:24:49;;;;;;;4.40;2.05;;;;;;;8.83;72.73;92731.41;5066966;28;20070;-72
2024/01/06 03:27:16;;;;;;;4.57;1.55;;;;;;;8.72;73.00;92729.53;5064845;28;20051;-73
2024/01/06 03:29:43;;;;;;;4.80;1.67;;;;;;;8.78;73.42;92731.25;5065377;28;20054;-72
2024/01/06 03:32:11;;;;;;;3.85;2.15;;;;;;;8.74;73.42;92719.88;5064788;28;20056;-72
2024/01/06 03:34:38;;;;;;;3.15;1.48;;;;;;;8.68;73.07;92721.50;5063014;28;20052;-72
2024/01/06 03:37:05;;;;;;;6.63;2.97;;;;;;;8.62;73.71;92712.88;5065768;28;20745;-72
2024/01/06 03:39:32;;;;;;;9.05;2.97;;;;;;;8.63;73.61;92709.31;5062240;28;20091;-72
2024/01/06 03:41:59;;;;;;;5.68;2.70;;;;;;;8.70;73.73;92709.25;5063336;28;20102;-72
2024/01/06 03:44:30;;;;;;;11.13;4.55;;;;;;;8.65;74.03;92703.97;5059990;28;20127;-72
2024/01/06 03:46:57;;;;;;;6.85;2.78;;;;;;;8.64;74.21;92710.88;5064205;28;20127;-72
2024/01/06 03:49:25;;;;;;;7.90;2.35;;;;;;;8.64;74.24;92704.97;5062329;28;20502;-72
2024/01/06 03:51:52;;;;;;;4.78;1.98;;;;;;;8.51;74.74;92703.28;5060158;28;20051;-72
2024/01/06 03:54:19;;;;;;;9.68;3.60;;;;;;;8.46;74.78;92698.03;5065825;28;20054;-72
2024/01/06 03:56:46;;;;;;;9.27;4.47;;;;;;;8.43;74.99;92702.53;5066461;28;20070;-72
2024/01/06 03:59:13;;;;;;;8.32;3.95;;;;;;;8.47;75.00;92704.69;5061241;28;20417;-73
2024/01/06 04:01:40;;;;;;;7.60;3.53;;;;;;;8.47;75.07;92695.22;5065948;28;20044;-72
2024/01/06 04:04:08;;;;;;;11.50;5.18;;;;;;;8.46;75.92;92703.91;5060440;28;20041;-72
2024/01/06 04:06:36;;;;;;;8.48;4.78;;;;;;;8.49;76.28;92692.47;5061936;28;20041;-72
2024/01/06 04:09:03;;;;;;;12.43;7.15;;;;;;;8.46;76.14;92695.47;5062911;28;20055;-72
2024/01/06 04:11:30;;;;;;;10.82;4.75;;;;;;;8.44;76.49;92695.66;5065663;28;20059;-72
2024/01/06 04:13:57;;;;;;;3.58;1.77;;;;;;;8.46;75.95;92690.34;5060011;28;20047;-72
2024/01/06 04:16:24;;;;;;;3.65;1.60;;;;;;;8.43;76.40;92688.97;5061305;28;20044;-72
2024/01/06 04:18:51;;;;;;;4.13;2.55;;;;;;;8.49;76.80;92697.59;5063368;28;20499;-72
2024/01/06 04:21:18;;;;;;;4.80;2.72;;;;;;;8.45;76.78;92704.09;5062853;28;20044;-72
2024/01/06 04:23:46;;;;;;;5.30;2.28;;;;;;;8.52;76.51;92700.53;5059645;28;20059;-73
2024/01/06 04:26:13;;;;;;;3.70;1.65;;;;;;;8.46;76.99;92710.81;5064822;28;20746;-72
2024/01/06 04:28:40;;;;;;;6.35;1.60;;;;;;;8.41;77.40;92708.88;5066480;28;20050;-72
2024/01/06 04:31:07;;;;;;;4.07;1.80;;;;;;;8.45;77.63;92712.59;5059093;28;20131;-73
2024/01/06 04:33:34;;;;;;;4.25;1.50;;;;;;;8.46;76.84;92708.25;5064104;28;20041;-71
2024/01/06 04:36:01;;;;;;;3.13;1.60;;;;;;;8.32;77.35;92680.19;5067477;28;20128;-72
2024/01/06 04:38:28;;;;;;;3.88;1.65;;;;;;;8.42;78.10;92711.22;5068141;28;20072;-72
2024/01/06 04:40:57;;;;;;;3.17;1.80;;;;;;;8.49;78.30;92713.75;5063310;28;20057;-72
2024/01/06 04:43:23;;;;;;;3.67;1.70;;;;;;;8.44;78.26;92713.56;5066475;28;20057;-72
2024/01/06 04:45:51;;;;;;;3.75;1.70;;;;;;;8.48;78.04;92713.94;5063442;28;20056;-72
2024/01/06 04:48:18;;;;;;;3.55;1.88;;;;;;;8.41;78.16;92708.88;5070399;28;20048;-72
2024/01/06 04:50:45;;;;;;;6.95;2.47;;;;;;;8.42;78.67;92707.88;5066002;28;20053;-72
2024/01/06 04:53:11;;;;;;;5.75;2.10;;;;;;;8.38;78.52;92702.38;5062669;28;20049;-72
2024/01/06 04:55:38;;;;;;;4.35;1.83;;;;;;;8.39;79.02;92703.19;5064579;28;20040;-72
2024/01/06 04:58:07;;;;;;;3.50;1.60;;;;;;;8.45;79.40;92693.88;5068137;28;20051;-72
2024/01/06 05:00:35;;;;;;;2.78;1.52;;;;;;;8.37;80.09;92700.03;5066826;28;20044;-72
2024/01/06 05:03:03;;;;;;;5.03;1.90;;;;;;;8.40;80.28;92697.88;5065394;28;20078;-72
2024/01/06 05:05:30;;;;;;;3.50;1.65;;;;;;;8.38;80.92;92696.50;5062024;28;20564;-72
2024/01/06 05:07:58;;;;;;;3.47;1.55;;;;;;;8.37;80.84;92693.16;5068883;28;20044;-72
2024/01/06 05:10:25;;;;;;;3.38;1.70;;;;;;;8.33;81.12;92686.09;5066884;28;20061;-72
2024/01/06 05:12:52;;;;;;;4.30;2.08;;;;;;;8.31;81.47;92676.06;5062224;28;20044;-72
2024/01/06 05:15:20;;;;;;;3.70;1.40;;;;;;;8.37;82.10;92675.22;5062593;28;20049;-73
2024/01/06 05:17:47;;;;;;;3.38;1.70;;;;;;;8.29;82.71;92673.72;5065178;28;20040;-72
2024/01/06 05:20:14;;;;;;;6.13;1.50;;;;;;;8.33;82.98;92668.97;5066134;28;20080;-73
2024/01/06 05:22:41;;;;;;;4.95;1.75;;;;;;;8.31;82.88;92665.84;5067011;28;20062;-72
2024/01/06 05:25:09;;;;;;;3.78;1.52;;;;;;;8.32;83.25;92658.94;5068605;28;20045;-73
2024/01/06 05:27:35;;;;;;;5.45;2.22;;;;;;;8.29;83.62;92666.03;5064123;28;20080;-72
2024/01/06 05:30:03;;;;;;;2.63;1.40;;;;;;;8.29;83.81;92660.91;5069220;28;20049;-73
2024/01/06 05:32:31;;;;;;;3.72;1.40;;;;;;;8.39;83.13;92659.69;5067748;28;20079;-72
2024/01/06 05:34:58;;;;;;;3.97;1.48;;;;;;;8.36;83.50;92660.88;5065043;28;20501;-73
2024/01/06 05:37:25;;;;;;;3.42;1.45;;;;;;;8.39;83.34;92644.31;5067888;28;20048;-72
2024/01/06 05:39:52;;;;;;;2.67;1.42;;;;;;;8.40;83.76;92651.00;5067993;28;20588;-71
2024/01/06 05:42:19;;;;;;;3.15;1.45;;;;;;;8.38;84.18;92647.88;5063280;28;20088;-73
2024/01/06 05:44:46;;;;;;;5.53;1.80;;;;;;;8.41;84.48;92647.44;5063473;28;20040;-72
2024/01/06 05:47:12;;;;;;;2.88;1.17;;;;;;;8.37;84.79;92659.09;5068337;28;20049;-72
2024/01/06 05:49:44;;;;;;;4.88;1.67;;;;;;;8.39;85.61;92652.00;5064896;28;20040;-72
2024/01/06 05:52:11;;;;;;;5.53;2.08;;;;;;;8.36;85.42;92653.19;5067050;28;20056;-72
2024/01/06 05:54:41;;;;;;;5.32;1.60;;;;;;;8.37;86.03;92653.97;5062927;28;20048;-72
2024/01/06 05:57:08;;;;;;;4.40;1.45;;;;;;;8.37;85.67;92646.28;5065157;28;20051;-74
2024/01/06 05:59:36;;;;;;;5.13;1.80;;;;;;;8.28;87.50;92649.13;5068339;28;20048;-72
2024/01/06 06:02:03;;;;;;;3.55;1.65;;;;;;;8.22;88.19;92639.72;5062755;28;20059;-72
2024/01/06 06:04:30;;;;;;;4.22;1.55;;;;;;;8.25;88.31;92656.44;5067053;28;20139;-73
2024/01/06 06:06:58;;;;;;;3.83;1.90;;;;;;;8.28;88.29;92656.00;5062026;28;20048;-72
2024/01/06 06:09:25;;;;;;;4.22;1.80;;;;;;;8.23;88.33;92650.72;5065548;28;20057;-72
2024/01/06 06:11:52;;;;;;;4.53;1.92;;;;;;;8.32;87.77;92658.94;5064671;28;20055;-72
2024/01/06 06:14:19;;;;;;;4.50;2.20;;;;;;;8.38;87.10;92665.78;5065171;28;20055;-72
2024/01/06 06:16:47;;;;;;;4.28;1.65;;;;;;;8.22;86.44;92637.16;5067959;28;20593;-72
2024/01/06 06:19:14;;;;;;;4.82;1.85;;;;;;;8.48;85.54;92663.50;5066029;28;20058;-72
2024/01/06 06:21:41;;;;;;;4.13;1.85;;;;;;;8.49;85.67;92660.00;5068546;28;20045;-72
2024/01/06 06:24:09;;;;;;;6.82;2.40;;;;;;;8.50;85.85;92653.06;5064158;28;20524;-72
2024/01/06 06:26:36;;;;;;;5.43;1.80;;;;;;;8.48;85.75;92666.06;5063477;28;20045;-71
2024/01/06 06:29:03;;;;;;;4.65;2.30;;;;;;;8.53;85.76;92668.81;5065219;28;20068;-72
2024/01/06 06:31:30;;;;;;;5.63;2.20;;;;;;;8.51;85.51;92665.66;5061396;28;20055;-72
2024/01/06 06:33:57;;;;;;;6.88;3.10;;;;;;;8.52;85.93;92666.50;5055528;28;20053;-72
2024/01/06 06:36:24;;;;;;;8.80;4.40;;;;;;;8.85;85.02;92665.41;5054451;28;20395;-72
2024/01/06 06:38:51;;;;;;;7.50;4.10;;;;;;;8.93;84.16;92666.88;5049229;28;20051;-72
2024/01/06 06:41:19;;;;;;;12.25;6.22;;;;;;;8.69;85.26;92664.16;5058652;28;20057;-72
2024/01/06 06:43:46;;;;;;;9.68;4.43;;;;;;;8.63;86.12;92665.81;5051868;28;20045;-72
2024/01/06 06:46:13;;;;;;;12.85;5.45;;;;;;;8.62;86.46;92664.25;5042048;28;20099;-72
2024/01/06 06:48:40;;;;;;;18.45;10.68;;;;;;;8.88;86.16;92670.09;5045005;28;20181;-72
2024/01/06 06:51:07;;;;;;;21.90;9.68;;;;;;;8.68;86.51;92662.59;5050297;28;20041;-72
2024/01/06 06:53:34;;;;;;;27.15;11.25;;;;;;;8.57;87.91;92664.09;5050700;28;20041;-72
2024/01/06 06:56:01;;;;;;;12.85;6.43;;;;;;;8.54;88.14;92667.84;5056470;28;20043;-72
2024/01/06 06:58:29;;;;;;;7.70;3.72;;;;;;;8.60;88.39;92678.25;5052147;28;20041;-72
2024/01/06 07:00:56;;;;;;;6.65;2.92;;;;;;;8.57;87.90;92666.66;5049615;28;20045;-72
2024/01/06 07:03:23;;;;;;;4.43;1.67;;;;;;;8.58;88.13;92668.22;5051297;28;20048;-72
2024/01/06 07:05:50;;;;;;;5.78;1.85;;;;;;;8.52;88.46;92669.06;5051431;28;20059;-71
2024/01/06 07:08:18;;;;;;;7.97;2.28;;;;;;;8.62;87.77;92671.13;5050878;28;20048;-72
2024/01/06 07:10:44;;;;;;;10.13;2.40;;;;;;;8.67;87.83;92666.16;5052329;28;20072;-72
2024/01/06 07:13:11;;;;;;;9.40;2.47;;;;;;;8.69;87.31;92672.63;5062735;28;20052;-72
2024/01/06 07:15:41;;;;;;;13.57;3.85;;;;;;;8.78;86.19;92673.16;5051541;28;20529;-71
2024/01/06 07:18:08;;;;;;;7.82;2.90;;;;;;;8.72;86.59;92658.63;5052253;28;20494;-72
2024/01/06 07:20:35;;;;;;;10.40;3.35;;;;;;;8.79;86.38;92659.34;5049443;28;20139;-72
2024/01/06 07:23:03;;;;;;;13.25;3.45;;;;;;;8.72;87.52;92662.97;5050803;28;20052;-72
2024/01/06 07:25:30;;;;;;;17.92;3.80;;;;;;;8.80;87.28;92660.91;5052509;28;20099;-72
2024/01/06 07:27:57;;;;;;;11.57;3.75;;;;;;;8.81;87.36;92661.69;5048986;28;20048;-72
2024/01/06 07:30:24;;;;;;;14.75;4.75;;;;;;;8.88;86.66;92646.28;5051308;28;20052;-72
2024/01/06 07:32:52;;;;;;;17.75;4.00;;;;;;;9.20;85.24;92652.03;5048804;28;20070;-72
2024/01/06 07:35:19;;;;;;;11.82;3.05;;;;;;;9.16;85.04;92647.56;5050045;28;20052;-71
2024/01/06 07:37:46;;;;;;;14.50;3.70;;;;;;;9.05;85.13;92651.59;5059381;28;20414;-71
2024/01/06 07:40:16;;;;;;;11.68;4.30;;;;;;;9.01;85.48;92658.13;5049604;28;20049;-72
2024/01/06 07:42:43;;;;;;;15.65;3.50;;;;;;;9.11;85.38;92657.66;5048207;28;20513;-71
2024/01/06 07:45:10;;;;;;;10.65;2.40;;;;;;;9.25;84.79;92653.94;5052362;28;20061;-72
2024/01/06 07:47:38;;;;;;;10.00;2.75;;;;;;;9.35;83.75;92659.34;5054766;28;20127;-72
2024/01/06 07:50:08;;;;;;;8.77;2.63;;;;;;;9.49;83.90;92656.59;5051997;28;20544;-72
2024/01/06 07:52:35;;;;;;;5.95;2.03;;;;;;;9.53;82.36;92654.41;5052946;28;20773;-72
2024/01/06 07:55:03;;;;;;;2.90;1.60;;;;;;;9.59;82.65;92654.31;5049050;28;20045;-72
2024/01/06 07:57:30;;;;;;;5.55;1.85;;;;;;;9.69;82.15;92650.47;5050647;28;20865;-71
2024/01/06 07:59:57;;;;;;;4.18;1.65;;;;;;;9.72;82.25;92658.50;5058385;28;20350;-72
2024/01/06 08:02:24;;;;;;;9.68;5.35;;;;;;;9.71;82.69;92659.50;5050329;28;20049;-72
2024/01/06 08:04:51;;;;;;;5.00;2.00;;;;;;;9.75;82.92;92657.28;5051767;28;20722;-72
2024/01/06 08:07:19;;;;;;;4.15;1.50;;;;;;;9.73;83.31;92657.50;5054665;28;20044;-71
2024/01/06 08:09:46;;;;;;;5.32;2.22;;;;;;;9.68;83.68;92643.78;5052193;28;20060;-72
2024/01/06 08:12:13;;;;;;;3.20;1.70;;;;;;;9.64;84.62;92646.00;5050545;28;20052;-71
2024/01/06 08:14:40;;;;;;;3.28;1.75;;;;;;;9.61;84.82;92647.22;5048190;28;20048;-71
2024/01/06 08:17:07;;;;;;;4.65;1.83;;;;;;;9.61;86.09;92642.06;5054810;28;20048;-71
2024/01/06 08:19:35;;;;;;;6.72;2.28;;;;;;;9.67;85.51;92645.53;5051892;28;20048;-71
2024/01/06 08:22:02;;;;;;;8.07;2.50;;;;;;;9.73;85.68;92649.78;5045629;28;20056;-72
2024/01/06 08:24:31;;;;;;;4.60;2.75;;;;;;;9.81;86.37;92645.38;5053522;28;20048;-71
2024/01/06 08:26:58;;;;;;;7.07;1.90;;;;;;;9.81;86.31;92643.56;5048303;28;20055;-71
2024/01/06 08:29:24;;;;;;;4.72;1.98;;;;;;;9.95;86.27;92648.53;5049429;28;20052;-71
2024/01/06 08:31:54;;;;;;;4.60;1.92;;;;;;;10.06;86.31;92647.78;5048344;28;20482;-71
2024/01/06 08:34:21;;;;;;;4.00;2.50;;;;;;;10.23;86.43;92645.34;5049270;28;20057;-71
2024/01/06 08:36:48;;;;;;;7.63;1.98;;;;;;;10.38;85.97;92649.28;5050688;28;20052;-71
2024/01/06 08:39:15;;;;;;;4.55;2.33;;;;;;;10.57;86.22;92650.00;5049000;28;20040;-71
2024/01/06 08:41:44;;;;;;;10.25;3.90;;;;;;;10.80;85.23;92640.72;5050374;28;20157;-72
2024/01/06 08:44:11;;;;;;;6.15;2.00;;;;;;;10.71;84.67;92649.75;5050544;28;20497;-71
2024/01/06 08:46:37;;;;;;;5.20;1.77;;;;;;;10.85;84.50;92645.97;5052343;28;20055;-71
2024/01/06 08:49:04;;;;;;;4.68;2.33;;;;;;;10.89;85.08;92641.94;5048438;28;20049;-71
2024/01/06 08:51:31;;;;;;;4.70;2.10;;;;;;;10.94;84.71;92639.47;5048161;28;20193;-71
2024/01/06 08:53:58;;;;;;;6.55;2.00;;;;;;;11.01;84.55;92636.00;5051142;28;20056;-71
2024/01/06 08:56:25;;;;;;;5.90;2.45;;;;;;;11.03;84.54;92637.34;5050493;28;20048;-72
2024/01/06 08:58:54;;;;;;;6.03;1.92;;;;;;;11.14;84.21;92629.81;5049111;28;20157;-71
2024/01/06 09:01:21;;;;;;;3.53;1.70;;;;;;;11.24;84.12;92630.03;5048797;28;20048;-71
2024/01/06 09:03:49;;;;;;;4.93;2.08;;;;;;;11.31;82.47;92640.19;5047778;28;20053;-72
2024/01/06 09:06:16;;;;;;;7.28;1.58;;;;;;;11.38;82.19;92633.09;5048533;28;20900;-72
2024/01/06 09:08:43;;;;;;;7.97;2.40;;;;;;;11.38;82.23;92630.53;5048584;28;20067;-72
2024/01/06 09:11:10;;;;;;;9.13;4.28;;;;;;;11.42;82.24;92630.84;5047386;28;20049;-72
2024/01/06 09:13:37;;;;;;;13.00;4.25;;;;;;;11.55;81.81;92627.25;5054853;28;20048;-72
2024/01/06 09:16:05;;;;;;;6.72;2.88;;;;;;;11.43;81.65;92617.00;5054628;28;20051;-72
2024/01/06 09:18:32;;;;;;;6.57;2.55;;;;;;;11.29;82.60;92616.50;5047802;28;20049;-71
2024/01/06 09:20:59;;;;;;;15.13;2.50;;;;;;;11.53;82.34;92603.56;5052089;28;20620;-72
2024/01/06 09:23:26;;;;;;;9.85;2.90;;;;;;;11.62;81.40;92618.38;5057269;28;20055;-72
2024/01/06 09:25:53;;;;;;;7.28;3.75;;;;;;;11.73;81.17;92613.41;5056557;28;20060;-72
2024/01/06 09:28:21;;;;;;;8.77;2.97;;;;;;;11.78;81.11;92616.06;5058068;28;20044;-72
2024/01/06 09:30:47;;;;;;;5.57;1.88;;;;;;;11.77;80.55;92594.69;5057051;28;20049;-72
2024/01/06 09:33:15;;;;;;;10.02;3.15;;;;;;;11.73;80.64;92600.56;5055803;28;20517;-72
2024/01/06 09:35:43;;;;;;;9.32;3.08;;;;;;;11.80;80.15;92592.69;5056311;28;20064;-72
2024/01/06 09:38:10;;;;;;;8.27;2.60;;;;;;;11.76;80.80;92584.66;5052663;28;20044;-72
2024/01/06 09:40:43;;;;;;;5.20;2.40;;;;;;;11.77;80.62;92588.78;5050378;28;20041;-72
2024/01/06 09:43:10;;;;;;;9.57;3.80;;;;;;;11.50;80.99;92569.53;5052663;28;20045;-72
2024/01/06 09:45:37;;;;;;;9.27;3.85;;;;;;;11.69;81.38;92571.16;5062612;28;20045;-72
2024/01/06 09:48:12;;;;;;;15.02;8.35;;;;;;;11.86;80.92;92571.94;5052241;28;20137;-72
2024/01/06 09:50:42;;;;;;;9.60;4.40;;;;;;;11.99;80.39;92567.53;5052383;28;20085;-72
2024/01/06 09:53:11;;;;;;;8.77;2.13;;;;;;;11.97;80.05;92566.97;5053445;28;20063;-72
2024/01/06 09:55:39;;;;;;;4.18;1.80;;;;;;;11.83;80.64;92566.47;5053514;28;20052;-71
2024/01/06 09:58:06;;;;;;;5.43;2.20;;;;;;;11.71;80.87;92551.91;5051750;28;20063;-71
2024/01/06 10:00:33;;;;;;;7.88;3.28;;;;;;;11.99;80.86;92557.22;5051613;28;20057;-71
2024/01/06 10:03:00;;;;;;;17.55;8.73;;;;;;;11.84;80.71;92548.25;5052119;28;20101;-71
2024/01/06 10:05:27;;;;;;;14.00;6.15;;;;;;;11.83;80.73;92541.53;5053644;28;20053;-71
2024/01/06 10:07:55;;;;;;;9.90;5.85;;;;;;;11.81;80.46;92543.56;5052807;28;20413;-71
2024/01/06 10:10:24;;;;;;;9.55;4.75;;;;;;;11.94;80.63;92536.56;5053614;28;20409;-72
2024/01/06 10:12:55;;;;;;;14.85;10.68;;;;;;;12.02;80.08;92534.38;5051939;28;20473;-71
2024/01/06 10:15:22;;;;;;;10.55;5.50;;;;;;;12.20;78.68;92522.28;5056201;28;20045;-71
2024/01/06 10:17:49;;;;;;;5.78;3.55;;;;;;;12.00;79.09;92533.03;5051233;28;20051;-71
2024/01/06 10:20:18;;;;;;;15.98;8.63;;;;;;;12.06;79.61;92526.19;5053464;28;20079;-71
2024/01/06 10:22:45;;;;;;;30.35;19.25;;;;;;;12.17;79.74;92530.47;5052923;28;20060;-71
2024/01/06 10:25:14;;;;;;;10.02;5.68;;;;;;;12.21;79.36;92521.25;5051800;28;20331;-71
2024/01/06 10:27:42;;;;;;;12.23;2.72;;;;;;;12.16;78.49;92518.63;5052716;28;20044;-71
2024/01/06 10:30:10;;;;;;;5.07;2.65;;;;;;;12.10;79.44;92511.84;5058827;28;20049;-72
2024/01/06 10:32:38;;;;;;;16.35;3.97;;;;;;;12.10;79.22;92517.00;5049592;28;20055;-71
2024/01/06 10:35:06;;;;;;;12.32;5.85;;;;;;;12.05;79.74;92509.97;5049369;28;20055;-72
2024/01/06 10:37:33;;;;;;;17.73;9.35;;;;;;;12.03;79.38;92497.31;5051914;28;20845;-72
2024/01/06 10:40:09;;;;;;;9.18;4.13;;;;;;;12.09;78.92;92493.03;5049715;28;20055;-72
2024/01/06 10:42:39;;;;;;;7.03;2.88;;;;;;;12.08;79.22;92493.28;5063124;28;20497;-72
2024/01/06 10:45:09;;;;;;;6.70;3.58;;;;;;;12.09;78.82;92490.44;5050733;28;20502;-72
2024/01/06 10:47:36;;;;;;;6.35;2.90;;;;;;;12.12;79.26;92486.63;5053022;28;20404;-72
2024/01/06 10:50:03;;;;;;;11.95;4.47;;;;;;;12.21;79.39;92469.00;5050998;28;20049;-72
2024/01/06 10:52:31;;;;;;;6.00;1.95;;;;;;;12.13;78.28;92450.34;5052898;28;20873;-72
2024/01/06 10:54:59;;;;;;;6.07;3.25;;;;;;;12.35;78.90;92462.47;5050160;28;20143;-72
2024/01/06 10:57:27;;;;;;;26.00;14.18;;;;;;;12.41;78.29;92465.91;5053318;28;20057;-72
2024/01/06 10:59:58;;;;;;;24.67;9.40;;;;;;;12.53;78.66;92461.41;5050172;28;20418;-72
2024/01/06 11:02:26;;;;;;;13.13;6.53;;;;;;;12.54;78.09;92452.66;5053066;28;20052;-72
2024/01/06 11:04:53;;;;;;;11.50;3.75;;;;;;;12.63;77.89;92457.41;5052423;28;20128;-72
2024/01/06 11:07:21;;;;;;;6.88;3.67;;;;;;;12.75;77.28;92450.31;5051632;28;20063;-72
2024/01/06 11:09:53;;;;;;;13.48;8.05;;;;;;;12.80;77.67;92445.22;5051285;28;20052;-72
2024/01/06 11:12:20;;;;;;;19.77;9.55;;;;;;;12.93;77.48;92440.69;5050258;28;20053;-72
2024/01/06 11:14:47;;;;;;;16.85;6.57;;;;;;;12.98;77.69;92432.22;5057468;28;20048;-72
2024/01/06 11:17:53;;;;;;;12.50;6.43;;;;;;;13.24;77.30;92440.97;5048760;28;20144;-72
2024/01/06 11:20:21;;;;;;;10.90;5.82;;;;;;;13.26;76.36;92428.63;5050869;28;20643;-72
2024/01/06 11:22:48;;;;;;;16.63;6.43;;;;;;;13.33;76.39;92421.44;5052098;28;20391;-72
2024/01/06 11:25:16;;;;;;;5.55;2.88;;;;;;;13.31;76.56;92417.56;5051249;28;20044;-72
2024/01/06 11:27:45;;;;;;;6.25;2.40;;;;;;;13.28;75.86;92411.09;5049979;28;20049;-72
2024/01/06 11:30:21;;;;;;;12.02;3.95;;;;;;;13.39;75.42;92404.22;5049212;28;20409;-72
2024/01/06 11:32:49;;;;;;;;;;;;;;;13.37;75.63;92395.94;5055073;28;20040;-72
2024/01/06 11:35:17;;;;;;;12.52;4.03;;;;;;;13.30;76.80;92383.28;5049902;28;19935;-72
2024/01/06 11:37:56;;;;;;;8.38;4.00;;;;;;;13.60;75.20;92389.69;5045573;28;20502;-72